Terminal Aerodrome Forecast
Issued by NWS Charleston, SC

Home | Current Version | Previous Version | Text Only | Print | Product List | Glossary On
Versions: 1 2 3 4 5 6 7 8 9 10 11 12 13 14 15 16 17 18 19 20 21 22 23 24 25 26 27 28 29 30
000
FTUS42 KCHS 182326
TAFCHS
TAF
KCHS 182326Z 1900/1924 17012G18KT P6SM BKN050
     FM190800 18014G22KT 6SM -SHRA BKN025
     FM191400 18023G32KT P6SM SCT015 BKN035
     FM191700 18032G42KT P6SM VCSH SCT025 BKN035
     FM192000 18022G31KT 6SM SHRA VCTS SCT025CB BKN035=

USA.gov is the U.S. government's official web portal to all federal, state and local government web resources and services.